Time,TemperatureF,DewpointF,PressureIn,WindDirection,WindDirectionDegrees,WindSpeedMPH,WindSpeedGustMPH,Humidity,HourlyPrecipIn,Conditions,Clouds,dailyrainin,SoftwareType,DateUTC
2013-10-29 00:01:00,45.6,43.0,29.28,NNW,346,6.0,17.0,91,0.00,,,0.00,weatherlink.com 1.10,2013-10-29 00:01:00,
2013-10-29 00:16:00,45.7,43.0,29.29,NNW,339,4.0,15.0,91,0.00,,,0.00,weatherlink.com 1.10,2013-10-29 00:16:00,
2013-10-29 00:31:00,45.6,43.0,29.30,North,6,9.0,14.0,91,0.00,,,0.00,weatherlink.com 1.10,2013-10-29 00:31:00,
2013-10-29 00:46:00,45.7,43.0,29.31,NNW,346,7.0,17.0,91,0.00,,,0.00,weatherlink.com 1.10,2013-10-29 00:46:00,
2013-10-29 01:01:00,45.7,44.0,29.31,NW,311,9.0,13.0,92,0.00,,,0.00,weatherlink.com 1.10,2013-10-29 01:01:00,
2013-10-29 01:16:00,45.5,43.0,29.32,North,356,6.0,13.0,92,0.00,,,0.00,weatherlink.com 1.10,2013-10-29 01:16:00,
2013-10-29 01:31:00,45.4,43.0,29.33,NNW,330,5.0,16.0,92,0.00,,,0.00,weatherlink.com 1.10,2013-10-29 01:31:00,
2013-10-29 01:47:00,45.4,43.0,29.34,WNW,299,5.0,15.0,92,0.00,,,0.00,weatherlink.com 1.10,2013-10-29 01:47:00,
2013-10-29 02:02:00,45.3,43.0,29.34,NNW,341,8.0,16.0,92,0.00,,,0.00,weatherlink.com 1.10,2013-10-29 02:02:00,
2013-10-29 02:17:00,45.0,43.0,29.35,North,357,7.0,15.0,92,0.00,,,0.00,weatherlink.com 1.10,2013-10-29 02:17:00,
2013-10-29 02:32:00,44.8,43.0,29.35,NW,320,12.0,15.0,92,0.00,,,0.00,weatherlink.com 1.10,2013-10-29 02:32:00,
2013-10-29 02:47:00,44.5,42.0,29.36,NNE,16,5.0,20.0,91,0.00,,,0.00,weatherlink.com 1.10,2013-10-29 02:47:00,
2013-10-29 03:02:00,44.1,42.0,29.36,NNW,328,7.0,19.0,91,0.00,,,0.00,weatherlink.com 1.10,2013-10-29 03:02:00,
2013-10-29 03:17:00,44.1,41.0,29.37,NNW,333,12.0,20.0,90,0.00,,,0.00,weatherlink.com 1.10,2013-10-29 03:17:00,
2013-10-29 03:32:00,43.7,41.0,29.37,North,9,9.0,17.0,90,0.00,,,0.00,weatherlink.com 1.10,2013-10-29 03:32:00,
2013-10-29 03:47:00,43.3,41.0,29.38,North,5,8.0,14.0,90,0.00,,,0.00,weatherlink.com 1.10,2013-10-29 03:47:00,
2013-10-29 04:02:00,42.2,39.0,29.39,West,281,2.0,14.0,89,0.00,,,0.00,weatherlink.com 1.10,2013-10-29 04:02:00,
2013-10-29 04:17:00,-999.0,-99.9,29.40,North,-999,-999.0,-999.0,-999,0.00,,,0.00,weatherlink.com 1.10,2013-10-29 04:17:00,
2013-10-29 04:32:00,-999.0,-99.9,29.40,North,-999,-999.0,-999.0,-999,0.00,,,0.00,weatherlink.com 1.10,2013-10-29 04:32:00,
2013-10-29 04:47:00,-999.0,-99.9,29.41,North,-999,-999.0,-999.0,-999,0.00,,,0.00,weatherlink.com 1.10,2013-10-29 04:47:00,
2013-10-29 05:02:00,-999.0,-99.9,29.41,North,-999,-999.0,-999.0,-999,0.00,,,0.00,weatherlink.com 1.10,2013-10-29 05:02:00,
2013-10-29 05:17:00,-999.0,-99.9,29.42,North,-999,-999.0,-999.0,-999,0.00,,,0.00,weatherlink.com 1.10,2013-10-29 05:17:00,
2013-10-29 05:32:00,-999.0,-99.9,29.43,North,-999,-999.0,-999.0,-999,0.00,,,0.00,weatherlink.com 1.10,2013-10-29 05:32:00,
2013-10-29 05:47:00,-999.0,-99.9,29.43,North,-999,-999.0,-999.0,-999,0.00,,,0.00,weatherlink.com 1.10,2013-10-29 05:47:00,
2013-10-29 06:02:00,-999.0,-99.9,29.44,North,-999,-999.0,-999.0,-999,0.00,,,0.00,weatherlink.com 1.10,2013-10-29 06:02:00,
2013-10-29 06:18:00,-999.0,-99.9,29.44,North,-999,-999.0,-999.0,-999,0.00,,,0.00,weatherlink.com 1.10,2013-10-29 06:18:00,
2013-10-29 06:33:00,-999.0,-99.9,29.45,North,-999,-999.0,-999.0,-999,0.00,,,0.00,weatherlink.com 1.10,2013-10-29 06:33:00,
2013-10-29 06:48:00,-999.0,-99.9,29.45,North,-999,-999.0,-999.0,-999,0.00,,,0.00,weatherlink.com 1.10,2013-10-29 06:48:00,
2013-10-29 07:03:00,-999.0,-99.9,29.46,North,-999,-999.0,-999.0,-999,0.00,,,0.00,weatherlink.com 1.10,2013-10-29 07:03:00,
2013-10-29 07:18:00,-999.0,-99.9,29.47,North,-999,-999.0,-999.0,-999,0.00,,,0.00,weatherlink.com 1.10,2013-10-29 07:18:00,
2013-10-29 07:33:00,-999.0,-99.9,29.48,North,-999,-999.0,-999.0,-999,0.00,,,0.00,weatherlink.com 1.10,2013-10-29 07:33:00,
2013-10-29 07:48:00,-999.0,-99.9,29.49,North,-999,-999.0,-999.0,-999,0.00,,,0.00,weatherlink.com 1.10,2013-10-29 07:48:00,
2013-10-29 08:03:00,-999.0,-99.9,29.49,North,-999,-999.0,-999.0,-999,0.00,,,0.00,weatherlink.com 1.10,2013-10-29 08:03:00,
2013-10-29 08:18:00,43.6,39.0,29.50,NW,319,12.0,17.0,85,0.00,,,0.00,weatherlink.com 1.10,2013-10-29 08:18:00,
2013-10-29 08:33:00,43.8,40.0,29.50,WSW,257,4.0,20.0,85,0.00,,,0.00,weatherlink.com 1.10,2013-10-29 08:33:00,
2013-10-29 08:48:00,44.4,40.0,29.51,WNW,293,10.0,17.0,84,0.00,,,0.00,weatherlink.com 1.10,2013-10-29 08:48:00,
2013-10-29 09:03:00,44.8,40.0,29.52,WNW,296,13.0,19.0,83,0.00,,,0.00,weatherlink.com 1.10,2013-10-29 09:03:00,
2013-10-29 09:18:00,45.2,40.0,29.52,NW,318,5.0,19.0,83,0.00,,,0.00,weatherlink.com 1.10,2013-10-29 09:18:00,
2013-10-29 09:33:00,45.5,40.0,29.53,WNW,302,8.0,25.0,82,0.00,,,0.00,weatherlink.com 1.10,2013-10-29 09:33:00,
2013-10-29 09:48:00,45.9,41.0,29.53,NNE,16,7.0,19.0,82,0.00,,,0.00,weatherlink.com 1.10,2013-10-29 09:48:00,
2013-10-29 10:03:00,46.2,41.0,29.54,NNW,347,13.0,16.0,82,0.00,,,0.00,weatherlink.com 1.10,2013-10-29 10:03:00,
2013-10-29 10:18:00,46.7,41.0,29.54,WNW,294,5.0,15.0,81,0.00,,,0.00,weatherlink.com 1.10,2013-10-29 10:18:00,
2013-10-29 10:34:00,47.1,42.0,29.54,North,354,4.0,21.0,81,0.00,,,0.00,weatherlink.com 1.10,2013-10-29 10:34:00,
2013-10-29 10:49:00,47.7,42.0,29.55,West,267,12.0,20.0,80,0.00,,,0.00,weatherlink.com 1.10,2013-10-29 10:49:00,
2013-10-29 11:04:00,48.0,42.0,29.55,NNE,25,9.0,19.0,80,0.00,,,0.00,weatherlink.com 1.10,2013-10-29 11:04:00,
2013-10-29 11:19:00,48.5,42.0,29.56,WNW,297,7.0,21.0,78,0.00,,,0.00,weatherlink.com 1.10,2013-10-29 11:19:00,
2013-10-29 11:34:00,48.6,42.0,29.56,NNW,345,6.0,20.0,79,0.00,,,0.00,weatherlink.com 1.10,2013-10-29 11:34:00,
2013-10-29 11:49:00,48.8,43.0,29.56,NW,304,11.0,19.0,79,0.00,,,0.00,weatherlink.com 1.10,2013-10-29 11:49:00,
2013-10-29 12:04:00,49.1,42.0,29.56,North,355,8.0,21.0,77,0.00,,,0.00,weatherlink.com 1.10,2013-10-29 12:04:00,
2013-10-29 12:19:00,49.6,42.0,29.56,NW,325,12.0,18.0,76,0.00,,,0.00,weatherlink.com 1.10,2013-10-29 12:19:00,
2013-10-29 12:34:00,49.6,42.0,29.57,North,5,9.0,24.0,76,0.00,,,0.00,weatherlink.com 1.10,2013-10-29 12:34:00,
2013-10-29 12:49:00,50.0,43.0,29.57,North,350,9.0,22.0,77,0.00,,,0.00,weatherlink.com 1.10,2013-10-29 12:49:00,
2013-10-29 13:04:00,50.1,43.0,29.57,NNW,330,14.0,16.0,76,0.00,,,0.00,weatherlink.com 1.10,2013-10-29 13:04:00,
2013-10-29 13:19:00,50.2,43.0,29.57,NNW,332,17.0,19.0,77,0.00,,,0.00,weatherlink.com 1.10,2013-10-29 13:19:00,
2013-10-29 13:34:00,49.9,43.0,29.58,NW,312,6.0,19.0,76,0.00,,,0.00,weatherlink.com 1.10,2013-10-29 13:34:00,
2013-10-29 13:49:00,50.1,43.0,29.58,NW,320,15.0,22.0,76,0.00,,,0.00,weatherlink.com 1.10,2013-10-29 13:49:00,
2013-10-29 14:04:00,50.1,42.0,29.58,NNW,335,11.0,20.0,75,0.00,,,0.00,weatherlink.com 1.10,2013-10-29 14:04:00,
2013-10-29 14:19:00,50.0,42.0,29.59,NNW,347,7.0,17.0,74,0.00,,,0.00,weatherlink.com 1.10,2013-10-29 14:19:00,
2013-10-29 14:34:00,49.7,42.0,29.59,NW,316,3.0,17.0,76,0.00,,,0.00,weatherlink.com 1.10,2013-10-29 14:34:00,
2013-10-29 14:49:00,50.2,43.0,29.59,NNW,341,5.0,15.0,77,0.00,,,0.00,weatherlink.com 1.10,2013-10-29 14:49:00,
2013-10-29 15:04:00,50.4,43.0,29.60,NW,310,6.0,14.0,77,0.00,,,0.00,weatherlink.com 1.10,2013-10-29 15:04:00,
2013-10-29 15:19:00,50.4,43.0,29.61,NNW,328,9.0,19.0,76,0.00,,,0.00,weatherlink.com 1.10,2013-10-29 15:19:00,
2013-10-29 15:34:00,50.0,43.0,29.61,NNW,345,18.0,18.0,77,0.00,,,0.00,weatherlink.com 1.10,2013-10-29 15:34:00,
2013-10-29 15:49:00,48.0,44.0,29.62,North,4,7.0,16.0,85,0.00,,,0.00,weatherlink.com 1.10,2013-10-29 15:49:00,
2013-10-29 16:04:00,47.3,44.0,29.62,NNE,22,3.0,8.0,87,0.00,,,0.00,weatherlink.com 1.10,2013-10-29 16:04:00,
2013-10-29 16:19:00,47.5,43.0,29.62,NW,326,6.0,10.0,85,0.00,,,0.00,weatherlink.com 1.10,2013-10-29 16:19:00,
2013-10-29 16:34:00,47.5,43.0,29.62,NW,321,7.0,7.0,85,0.00,,,0.00,weatherlink.com 1.10,2013-10-29 16:34:00,
2013-10-29 16:49:00,47.1,43.0,29.63,NNW,342,3.0,8.0,85,0.00,,,0.00,weatherlink.com 1.10,2013-10-29 16:49:00,
2013-10-29 17:04:00,47.1,43.0,29.63,NNW,341,2.0,9.0,84,0.00,,,0.00,weatherlink.com 1.10,2013-10-29 17:04:00,
2013-10-29 17:19:00,47.0,42.0,29.64,NNE,22,2.0,8.0,82,0.00,,,0.00,weatherlink.com 1.10,2013-10-29 17:19:00,
2013-10-29 17:34:00,47.0,41.0,29.64,NW,314,5.0,9.0,81,0.00,,,0.00,weatherlink.com 1.10,2013-10-29 17:34:00,
2013-10-29 17:49:00,47.3,40.0,29.64,NW,308,5.0,12.0,77,0.00,,,0.00,weatherlink.com 1.10,2013-10-29 17:49:00,
2013-10-29 18:04:00,46.9,40.0,29.65,NW,325,2.0,11.0,76,0.00,,,0.00,weatherlink.com 1.10,2013-10-29 18:04:00,
2013-10-29 18:19:00,46.7,40.0,29.65,North,4,4.0,11.0,76,0.00,,,0.00,weatherlink.com 1.10,2013-10-29 18:19:00,
2013-10-29 18:35:00,46.7,40.0,29.66,WNW,297,8.0,10.0,76,0.00,,,0.00,weatherlink.com 1.10,2013-10-29 18:35:00,
2013-10-29 18:50:00,46.3,39.0,29.66,NNW,330,2.0,12.0,77,0.00,,,0.00,weatherlink.com 1.10,2013-10-29 18:50:00,
2013-10-29 19:05:00,46.1,40.0,29.67,WNW,300,5.0,10.0,78,0.00,,,0.00,weatherlink.com 1.10,2013-10-29 19:05:00,
2013-10-29 19:20:00,46.0,40.0,29.67,NW,316,3.0,11.0,78,0.00,,,0.00,weatherlink.com 1.10,2013-10-29 19:20:00,
2013-10-29 19:35:00,45.9,40.0,29.67,WNW,283,4.0,13.0,79,0.00,,,0.00,weatherlink.com 1.10,2013-10-29 19:35:00,
2013-10-29 19:50:00,45.4,40.0,29.68,NW,308,2.0,10.0,80,0.00,,,0.00,weatherlink.com 1.10,2013-10-29 19:50:00,
2013-10-29 20:05:00,45.2,40.0,29.68,NNW,337,1.0,7.0,81,0.00,,,0.00,weatherlink.com 1.10,2013-10-29 20:05:00,
2013-10-29 20:20:00,45.1,40.0,29.68,NW,314,5.0,9.0,81,0.00,,,0.00,weatherlink.com 1.10,2013-10-29 20:20:00,
2013-10-29 20:35:00,45.1,39.0,29.69,North,353,3.0,14.0,80,0.00,,,0.00,weatherlink.com 1.10,2013-10-29 20:35:00,
2013-10-29 20:50:00,44.9,39.0,29.69,NNW,333,3.0,7.0,81,0.00,,,0.00,weatherlink.com 1.10,2013-10-29 20:50:00,
2013-10-29 21:04:00,44.6,39.0,29.69,NW,309,4.0,8.0,82,0.00,,,0.00,weatherlink.com 1.10,2013-10-29 21:04:00,
2013-10-29 21:20:00,44.5,39.0,29.69,North,350,2.0,10.0,82,0.00,,,0.00,weatherlink.com 1.10,2013-10-29 21:20:00,
2013-10-29 21:35:00,44.0,40.0,29.69,North,349,2.0,7.0,84,0.00,,,0.00,weatherlink.com 1.10,2013-10-29 21:35:00,
2013-10-29 21:50:00,44.0,40.0,29.70,WNW,293,4.0,9.0,85,0.00,,,0.00,weatherlink.com 1.10,2013-10-29 21:50:00,
2013-10-29 22:05:00,43.8,40.0,29.69,WNW,296,2.0,12.0,86,0.00,,,0.00,weatherlink.com 1.10,2013-10-29 22:05:00,
2013-10-29 22:20:00,43.9,40.0,29.70,NNW,330,4.0,11.0,86,0.00,,,0.00,weatherlink.com 1.10,2013-10-29 22:20:00,
2013-10-29 22:50:00,43.9,40.0,29.70,NW,321,4.0,8.0,86,0.00,,,0.00,weatherlink.com 1.10,2013-10-29 22:50:00,
2013-10-29 23:05:00,44.2,40.0,29.70,North,11,5.0,9.0,86,0.00,,,0.00,weatherlink.com 1.10,2013-10-29 23:05:00,
2013-10-29 23:20:00,44.1,41.0,29.70,North,351,8.0,11.0,87,0.00,,,0.00,weatherlink.com 1.10,2013-10-29 23:20:00,
2013-10-29 23:35:00,44.4,41.0,29.70,NNW,347,2.0,9.0,87,0.00,,,0.00,weatherlink.com 1.10,2013-10-29 23:35:00,
2013-10-29 23:50:00,44.5,41.0,29.70,SW,224,4.0,10.0,87,0.00,,,0.00,weatherlink.com 1.10,2013-10-29 23:50:00,